createdAt,value
2017-11-07T00:00:20.504Z,7.1
2017-11-07T00:02:17.328Z,6.5
2017-11-07T00:04:18.121Z,7.5
2017-11-07T00:06:17.878Z,6.9
2017-11-07T00:08:20.642Z,7.3
2017-11-07T00:10:17.435Z,6.7
2017-11-07T00:12:18.210Z,6.7
2017-11-07T00:14:17.979Z,6.9
2017-11-07T00:16:16.751Z,7
2017-11-07T00:18:17.549Z,7.3
2017-11-07T00:20:18.326Z,7.4
2017-11-07T00:22:18.102Z,7.1
2017-11-07T00:24:17.881Z,6.2
2017-11-07T00:26:16.661Z,6.4
2017-11-07T00:28:18.422Z,6.8
2017-11-07T00:30:18.207Z,6.9
2017-11-07T00:32:17.997Z,6.8
2017-11-07T00:34:17.753Z,7.4
2017-11-07T00:36:17.540Z,6.7
2017-11-07T00:38:18.308Z,6.4
2017-11-07T00:40:17.106Z,6.8
2017-11-07T00:42:17.878Z,6.8
2017-11-07T00:44:17.649Z,6.5
2017-11-07T00:46:17.448Z,7.1
2017-11-07T00:48:18.208Z,6.8
2017-11-07T00:50:17.993Z,6.6
2017-11-07T00:52:17.777Z,6.9
2017-11-07T00:54:17.555Z,6.4
2017-11-07T00:56:17.368Z,6
2017-11-07T00:58:18.132Z,5.9
2017-11-07T01:00:17.907Z,5.5
2017-11-07T01:02:17.686Z,6.5
2017-11-07T01:04:18.452Z,6.8
2017-11-07T01:06:17.243Z,7.2
2017-11-07T01:08:18.028Z,5.9
2017-11-07T01:10:17.811Z,6.4
2017-11-07T01:12:17.602Z,6.2
2017-11-07T01:14:18.384Z,5.6
2017-11-07T01:16:17.176Z,5.9
2017-11-07T01:18:17.938Z,6.4
2017-11-07T01:20:20.717Z,6.7
2017-11-07T01:22:20.501Z,7.2
2017-11-07T01:24:21.280Z,7.2
2017-11-07T01:26:18.101Z,6.7
2017-11-07T01:28:17.887Z,6.6
2017-11-07T01:30:17.670Z,6.6
2017-11-07T01:32:18.451Z,6.9
2017-11-07T01:34:18.238Z,7.4
2017-11-07T01:36:18.005Z,6.1
2017-11-07T01:38:20.782Z,7.2
2017-11-07T01:40:17.598Z,7
2017-11-07T01:42:21.388Z,6.4
2017-11-07T01:44:21.179Z,6.5
2017-11-07T01:46:17.969Z,4.7
2017-11-07T01:48:20.746Z,6.3
2017-11-07T01:50:17.555Z,5.6
2017-11-07T01:52:18.321Z,6.1
2017-11-07T01:54:21.116Z,6.6
2017-11-07T01:56:17.901Z,5.4
2017-11-07T01:58:17.697Z,6.3
2017-11-07T02:00:18.480Z,6.2
2017-11-07T02:02:18.275Z,5.9
2017-11-07T02:04:18.048Z,5.8
2017-11-07T02:06:16.834Z,6
2017-11-07T02:08:17.611Z,5.3
2017-11-07T02:10:17.380Z,5.2
2017-11-07T02:12:18.182Z,5.7
2017-11-07T02:14:17.957Z,6
2017-11-07T02:16:16.748Z,5.1
2017-11-07T02:18:17.502Z,5.7
2017-11-07T02:20:18.271Z,5.1
2017-11-07T02:22:18.044Z,5.4
2017-11-07T02:24:17.833Z,5.1
2017-11-07T02:26:17.607Z,4.5
2017-11-07T02:28:18.403Z,5.2
2017-11-07T02:30:18.142Z,5.6
2017-11-07T02:32:17.894Z,5.3
2017-11-07T02:34:17.637Z,6.1
2017-11-07T02:36:18.411Z,4.8
2017-11-07T02:38:18.178Z,5.9
2017-11-07T02:40:17.933Z,4.9
2017-11-07T02:42:17.708Z,4.8
2017-11-07T02:44:18.500Z,4.7
2017-11-07T02:46:17.263Z,5.1
2017-11-07T02:48:18.006Z,5
2017-11-07T02:50:17.792Z,5.2
2017-11-07T02:52:17.551Z,5.3
2017-11-07T02:54:18.327Z,4.7
2017-11-07T02:56:21.074Z,4.5
2017-11-07T02:58:17.849Z,5.1
2017-11-07T03:02:17.375Z,4.9
2017-11-07T03:04:21.130Z,4.5
2017-11-07T03:06:17.901Z,4.3
2017-11-07T03:08:17.641Z,5
2017-11-07T03:10:17.412Z,4.5
2017-11-07T03:12:18.189Z,4.4
2017-11-07T03:14:17.949Z,5
2017-11-07T03:16:16.729Z,4.8
2017-11-07T03:18:17.481Z,5
2017-11-07T03:20:18.238Z,5.3
2017-11-07T03:22:18.013Z,4.9
2017-11-07T03:24:17.770Z,5.1
2017-11-07T03:26:17.539Z,4.6
2017-11-07T03:28:18.305Z,4.6
2017-11-07T03:30:18.050Z,5.3
2017-11-07T03:32:17.815Z,4.6
2017-11-07T03:34:17.558Z,4.7
2017-11-07T03:36:17.352Z,4.6
2017-11-07T03:38:18.102Z,4.8
2017-11-07T03:40:17.870Z,4.3
2017-11-07T03:42:17.606Z,5.2
2017-11-07T03:44:18.345Z,4.6
2017-11-07T03:46:18.134Z,4.6
2017-11-07T03:48:17.890Z,4.5
2017-11-07T03:50:17.625Z,5.1
2017-11-07T03:52:18.417Z,5.1
2017-11-07T03:54:18.170Z,3.8
2017-11-07T03:56:17.962Z,5.3
2017-11-07T03:58:17.692Z,5.3
2017-11-07T04:00:18.448Z,4.8
2017-11-07T04:02:18.226Z,5.2
2017-11-07T04:04:17.949Z,5
2017-11-07T04:06:16.724Z,5.2
2017-11-07T04:08:18.463Z,5.4
2017-11-07T04:10:17.227Z,5.6
2017-11-07T04:12:17.979Z,4.7
2017-11-07T04:14:17.720Z,5.2
2017-11-07T04:16:17.483Z,5.3
2017-11-07T04:18:18.262Z,5.4
2017-11-07T04:20:18.023Z,4.7
2017-11-07T04:22:17.795Z,3.3
2017-11-07T04:24:17.546Z,4.3
2017-11-07T04:26:17.327Z,4.7
2017-11-07T04:28:18.097Z,4.3
2017-11-07T04:30:17.875Z,5.2
2017-11-07T04:32:17.629Z,5
2017-11-07T04:34:18.417Z,4.4
2017-11-07T04:36:21.163Z,3.8
2017-11-07T04:38:17.954Z,3.9
2017-11-07T04:40:17.705Z,4.2
2017-11-07T04:42:17.460Z,4.5
2017-11-07T04:44:18.217Z,4.3
2017-11-07T04:46:18.003Z,4.9
2017-11-07T04:48:17.766Z,4.7
2017-11-07T04:50:17.534Z,4.2
2017-11-07T04:52:18.277Z,4.4
2017-11-07T04:54:21.025Z,3.8
2017-11-07T04:56:17.831Z,4.3
2017-11-07T04:58:17.580Z,4
2017-11-07T05:00:18.338Z,4.3
2017-11-07T05:02:18.105Z,4
2017-11-07T05:04:17.861Z,4.3
2017-11-07T05:06:17.628Z,4.4
2017-11-07T05:08:18.378Z,4.5
2017-11-07T05:10:17.148Z,4.3
2017-11-07T05:12:17.906Z,4.4
2017-11-07T05:14:20.654Z,4.5
2017-11-07T05:16:17.436Z,4.8
2017-11-07T05:18:18.186Z,4.4
2017-11-07T05:20:17.972Z,5.1
2017-11-07T05:22:17.702Z,4.6
2017-11-07T05:24:18.465Z,4.6
2017-11-07T05:26:17.205Z,5
2017-11-07T05:28:17.964Z,6.3
2017-11-07T05:30:17.741Z,5.9
2017-11-07T05:32:17.501Z,6.5
2017-11-07T05:34:18.285Z,5.9
2017-11-07T05:36:17.060Z,6.1
2017-11-07T05:38:17.829Z,6
2017-11-07T05:40:17.593Z,6.7
2017-11-07T05:42:18.344Z,6.7
2017-11-07T05:44:18.122Z,5.9
2017-11-07T05:46:16.898Z,5.8
2017-11-07T05:48:17.654Z,6
2017-11-07T05:50:18.409Z,6
2017-11-07T05:52:18.196Z,6.3
2017-11-07T05:54:17.975Z,6
2017-11-07T05:56:17.745Z,6.3
2017-11-07T05:58:17.532Z,6.7
2017-11-07T06:00:18.291Z,5.8
2017-11-07T06:02:18.073Z,6.1
2017-11-07T06:04:17.839Z,5.9
2017-11-07T06:06:17.599Z,5.8
2017-11-07T06:08:18.365Z,5.5
2017-11-07T06:10:17.115Z,6.1
2017-11-07T06:12:17.913Z,5.3
2017-11-07T06:14:17.672Z,6.1
2017-11-07T06:16:17.435Z,6.3
2017-11-07T06:18:18.210Z,5.9
2017-11-07T06:20:17.956Z,5.8
2017-11-07T06:22:17.718Z,5.9
2017-11-07T06:24:21.506Z,5.8
2017-11-07T06:26:17.291Z,6.1
2017-11-07T06:28:18.032Z,5.7
2017-11-07T06:30:17.796Z,6.4
2017-11-07T06:32:17.589Z,5.5
2017-11-07T06:34:18.332Z,5.7
2017-11-07T06:36:17.112Z,5.6
2017-11-07T06:38:17.869Z,6
2017-11-07T06:40:17.632Z,6.2
2017-11-07T06:42:18.398Z,6.7
2017-11-07T06:44:18.176Z,6.1
2017-11-07T06:46:16.931Z,6.8
2017-11-07T06:48:17.691Z,7.3
2017-11-07T06:50:18.458Z,7
2017-11-07T06:52:18.228Z,6.6
2017-11-07T06:54:17.974Z,6.8
2017-11-07T06:56:16.748Z,7.1
2017-11-07T06:58:17.501Z,6.9
2017-11-07T07:00:18.268Z,7.3
2017-11-07T07:02:18.033Z,5.7
2017-11-07T07:04:17.789Z,6.8
2017-11-07T07:06:17.576Z,6.3
2017-11-07T07:08:18.343Z,6
2017-11-07T07:10:17.111Z,5.5
2017-11-07T07:12:17.874Z,5.6
2017-11-07T07:14:17.630Z,6.1
2017-11-07T07:16:17.413Z,6.2
2017-11-07T07:18:18.158Z,6.3
2017-11-07T07:20:17.931Z,5.8
2017-11-07T07:22:17.718Z,6.3
2017-11-07T07:24:18.488Z,5.9
2017-11-07T07:26:17.237Z,6.7
2017-11-07T07:28:18.021Z,6.9
2017-11-07T07:30:17.792Z,8.7
2017-11-07T07:32:17.579Z,8.8
2017-11-07T07:34:18.341Z,7.6
2017-11-07T07:36:18.111Z,7.1
2017-11-07T07:38:17.892Z,7.2
2017-11-07T07:40:17.658Z,7.7
2017-11-07T07:42:18.442Z,7.7
2017-11-07T07:44:18.276Z,7.3
2017-11-07T07:46:17.975Z,8.1
2017-11-07T07:48:17.753Z,7.5
2017-11-07T07:50:17.538Z,7.4
2017-11-07T07:52:18.314Z,7
2017-11-07T07:54:18.089Z,7.4
2017-11-07T07:56:16.884Z,6.6
2017-11-07T07:58:17.640Z,6.8
2017-11-07T08:00:18.420Z,6.6
2017-11-07T08:02:18.194Z,6.3
2017-11-07T08:04:17.968Z,6.3
2017-11-07T08:06:17.741Z,7.3
2017-11-07T08:08:20.501Z,6.2
2017-11-07T08:10:17.308Z,6.7
2017-11-07T08:12:18.060Z,6.4
2017-11-07T08:14:17.861Z,6.8
2017-11-07T08:16:17.631Z,5.9
2017-11-07T08:18:18.433Z,6.5
2017-11-07T08:20:18.203Z,6.1
2017-11-07T08:22:20.966Z,6.2
2017-11-07T08:24:20.770Z,5.2
2017-11-07T08:26:17.570Z,5.5
2017-11-07T08:28:18.361Z,5.7
2017-11-07T08:30:18.144Z,5.2
2017-11-07T08:32:17.965Z,5.1
2017-11-07T08:34:17.762Z,5.4
2017-11-07T08:36:17.556Z,4.5
2017-11-07T08:38:18.358Z,4.8
2017-11-07T08:40:17.161Z,4.5
2017-11-07T08:42:17.982Z,5
2017-11-07T08:44:20.770Z,5.5
2017-11-07T08:46:17.594Z,5.1
2017-11-07T08:48:18.387Z,5.1
2017-11-07T08:50:21.203Z,5.5
2017-11-07T08:52:21.018Z,5.1
2017-11-07T08:54:20.833Z,4.8
2017-11-07T08:56:16.667Z,4.9
2017-11-07T08:58:18.481Z,4.4
2017-11-07T09:00:18.274Z,4.6
2017-11-07T09:02:17.098Z,5.2
2017-11-07T09:04:17.892Z,5.1
2017-11-07T09:06:17.688Z,4.7
2017-11-07T09:08:21.506Z,4.8
2017-11-07T09:10:17.343Z,5.2
2017-11-07T09:12:21.146Z,4.8
2017-11-07T09:14:16.989Z,4.4
2017-11-07T09:16:17.801Z,4.5
2017-11-07T09:18:17.638Z,4.2
2017-11-07T09:20:21.454Z,4.1
2017-11-07T09:22:18.281Z,4
2017-11-07T09:24:18.089Z,4.5
2017-11-07T09:26:16.919Z,4.3
2017-11-07T09:28:16.755Z,4.5
2017-11-07T09:30:17.560Z,4.8
2017-11-07T09:32:17.420Z,3.6
2017-11-07T09:34:17.249Z,4
2017-11-07T09:36:17.083Z,2.9
2017-11-07T09:38:17.889Z,4.4
2017-11-07T09:40:17.724Z,4.5
2017-11-07T09:42:20.524Z,3.9
2017-11-07T09:44:17.379Z,3.9
2017-11-07T09:46:17.234Z,3.5
2017-11-07T09:48:17.082Z,3.5
2017-11-07T09:50:20.891Z,3.3
2017-11-07T09:52:16.763Z,3.9
2017-11-07T09:54:16.613Z,3.8
2017-11-07T09:56:17.476Z,3.7
2017-11-07T09:58:17.325Z,3.8
2017-11-07T10:00:21.161Z,3.4
2017-11-07T10:02:17.046Z,3.2
2017-11-07T10:04:16.918Z,3.5
2017-11-07T10:06:16.797Z,3
2017-11-07T10:08:16.639Z,3.3
2017-11-07T10:10:17.513Z,3.7
2017-11-07T10:12:17.360Z,3
2017-11-07T10:14:17.235Z,3.3
2017-11-07T10:16:17.066Z,2.8
2017-11-07T10:18:17.939Z,2.2
2017-11-07T10:20:17.823Z,1.7
2017-11-07T10:22:16.708Z,1.3
2017-11-07T10:24:17.527Z,1.8
2017-11-07T10:26:17.406Z,1.6
2017-11-07T10:28:17.250Z,1.8
2017-11-07T10:30:17.139Z,1.6
2017-11-07T10:32:16.989Z,1.3
2017-11-07T10:34:16.868Z,1.7
2017-11-07T10:36:17.727Z,2
2017-11-07T10:38:16.637Z,1.6
2017-11-07T10:40:17.510Z,1.3
2017-11-07T10:42:17.399Z,1.2
2017-11-07T10:44:17.285Z,1.3
2017-11-07T10:46:18.157Z,1.3
2017-11-07T10:48:17.042Z,1.4
2017-11-07T10:50:16.925Z,1.5
2017-11-07T10:52:16.819Z,1.3
2017-11-07T10:54:16.719Z,1.9
2017-11-07T10:56:17.603Z,1.6
2017-11-07T10:58:17.486Z,1.3
2017-11-07T11:00:17.385Z,1.3
2017-11-07T11:02:17.267Z,1
2017-11-07T11:04:17.160Z,1.5
2017-11-07T11:06:18.047Z,1.5
2017-11-07T11:08:16.939Z,1.4
2017-11-07T11:10:17.840Z,1.4
2017-11-07T11:12:16.721Z,1
2017-11-07T11:14:17.587Z,1.2
2017-11-07T11:16:17.502Z,1.3
2017-11-07T11:18:18.372Z,1.4
2017-11-07T11:20:17.270Z,1.3
2017-11-07T11:22:17.160Z,1.6
2017-11-07T11:24:17.016Z,1.7
2017-11-07T11:26:16.923Z,1.2
2017-11-07T11:28:16.797Z,1.3
2017-11-07T11:30:16.673Z,1.3
2017-11-07T11:32:17.539Z,1.3
2017-11-07T11:34:17.438Z,1.2
2017-11-07T11:36:17.294Z,1.3
2017-11-07T11:38:17.192Z,1.1
2017-11-07T11:40:17.070Z,0.9
2017-11-07T11:42:16.949Z,1
2017-11-07T11:44:16.840Z,1.3
2017-11-07T11:46:17.721Z,1.4
2017-11-07T11:48:16.603Z,1.1
2017-11-07T11:50:18.502Z,1.1
2017-11-07T11:52:17.376Z,1.2
2017-11-07T11:54:17.301Z,1.4
2017-11-07T11:56:17.178Z,1
2017-11-07T11:58:17.068Z,1.4
2017-11-07T12:00:16.960Z,1.3
2017-11-07T12:02:16.835Z,1.1
2017-11-07T12:04:16.735Z,1.1
2017-11-07T12:06:17.611Z,1.1
2017-11-07T12:08:17.481Z,1.1
2017-11-07T12:10:17.368Z,1
2017-11-07T12:12:17.260Z,1.3
2017-11-07T12:14:17.136Z,1
2017-11-07T12:16:17.036Z,1.2
2017-11-07T12:18:20.900Z,0.9
2017-11-07T12:20:16.799Z,0.7
2017-11-07T12:22:16.682Z,0.9
2017-11-07T12:24:17.571Z,1.3
2017-11-07T12:26:17.466Z,1
2017-11-07T12:28:17.370Z,1
2017-11-07T12:30:17.258Z,0.9
2017-11-07T12:32:17.140Z,0.9
2017-11-07T12:34:17.033Z,1
2017-11-07T12:36:17.925Z,1.1
2017-11-07T12:38:16.794Z,1.4
2017-11-07T12:40:17.676Z,1
2017-11-07T12:42:17.574Z,1.3
2017-11-07T12:44:17.493Z,1.7
2017-11-07T12:46:17.360Z,1.6
2017-11-07T12:48:17.261Z,1.3
2017-11-07T12:50:17.152Z,1.3
2017-11-07T12:52:17.038Z,1.4
2017-11-07T12:54:16.931Z,1.8
2017-11-07T12:56:16.841Z,1.7
2017-11-07T12:58:16.733Z,1.4
2017-11-07T13:00:17.631Z,1.7
2017-11-07T13:02:17.515Z,1.7
2017-11-07T13:04:17.398Z,2
2017-11-07T13:06:17.300Z,1.7
2017-11-07T13:08:17.197Z,2.4
2017-11-07T13:10:17.101Z,2.1
2017-11-07T13:12:17.002Z,1.7
2017-11-07T13:14:16.904Z,1.8
2017-11-07T13:16:17.831Z,1.8
2017-11-07T13:18:16.740Z,1.5
2017-11-07T13:20:16.672Z,1.5
2017-11-07T13:22:17.582Z,1.4
2017-11-07T13:24:17.480Z,1.8
2017-11-07T13:26:17.389Z,1.3
2017-11-07T13:28:17.304Z,1.6
2017-11-07T13:30:17.214Z,1.4
2017-11-07T13:32:17.117Z,0.9
2017-11-07T13:34:17.017Z,1.5
2017-11-07T13:36:17.929Z,0.8
2017-11-07T13:38:16.837Z,1.3
2017-11-07T13:40:17.748Z,1
2017-11-07T13:42:16.636Z,1.2
2017-11-07T13:44:17.526Z,1
2017-11-07T13:46:17.438Z,1.3
2017-11-07T13:48:17.366Z,0.9
2017-11-07T13:50:17.262Z,1.9
2017-11-07T13:52:17.172Z,1.3
2017-11-07T13:54:17.064Z,1.4
2017-11-07T13:56:16.984Z,1.1
2017-11-07T13:58:16.912Z,1
2017-11-07T14:00:16.856Z,1.2
2017-11-07T14:02:16.735Z,0.9
2017-11-07T14:04:16.647Z,1.6
2017-11-07T14:06:17.564Z,1.5
2017-11-07T14:08:17.458Z,1.9
2017-11-07T14:10:17.378Z,1.5
2017-11-07T14:12:17.261Z,1.8
2017-11-07T14:14:17.146Z,1.9
2017-11-07T14:16:17.046Z,1.4
2017-11-07T14:18:16.949Z,1.3
2017-11-07T14:20:16.863Z,1.8
2017-11-07T14:22:16.726Z,1.4
2017-11-07T14:24:16.627Z,1.7
2017-11-07T14:26:17.532Z,1.5
2017-11-07T14:28:17.424Z,1.8
2017-11-07T14:30:17.326Z,1.7
2017-11-07T14:32:17.224Z,1.6
2017-11-07T14:34:17.096Z,2
2017-11-07T14:36:20.990Z,1.7
2017-11-07T14:38:16.888Z,2.7
2017-11-07T14:40:17.788Z,2
2017-11-07T14:42:16.659Z,1.8
2017-11-07T14:44:17.547Z,1.8
2017-11-07T14:46:17.445Z,2.1
2017-11-07T14:48:17.344Z,1.7
2017-11-07T14:50:17.219Z,1.7
2017-11-07T14:52:17.112Z,1.9
2017-11-07T14:54:16.989Z,1.8
2017-11-07T14:56:16.875Z,1.8
2017-11-07T14:58:16.772Z,2.9
2017-11-07T15:00:16.671Z,2.1
2017-11-07T15:02:17.536Z,1.7
2017-11-07T15:04:17.434Z,1.7
2017-11-07T15:06:17.338Z,2.3
2017-11-07T15:08:17.218Z,1.6
2017-11-07T15:10:17.110Z,1.8
2017-11-07T15:12:16.998Z,2.1
2017-11-07T15:14:16.904Z,2.3
2017-11-07T15:16:17.770Z,2.3
2017-11-07T15:18:20.674Z,2.2
2017-11-07T15:20:17.571Z,2.2
2017-11-07T15:22:17.473Z,2.1
2017-11-07T15:24:17.358Z,2.3
2017-11-07T15:26:18.238Z,1.8
2017-11-07T15:28:17.129Z,2.4
2017-11-07T15:30:17.017Z,1.8
2017-11-07T15:32:16.923Z,2
2017-11-07T15:34:16.804Z,2.2
2017-11-07T15:36:17.698Z,2
2017-11-07T15:38:17.564Z,2
2017-11-07T15:40:17.462Z,2.1
2017-11-07T15:42:17.357Z,2.3
2017-11-07T15:44:17.239Z,2.5
2017-11-07T15:46:17.118Z,1.6
2017-11-07T15:48:17.022Z,2.2
2017-11-07T15:50:16.900Z,2.8
2017-11-07T15:52:16.784Z,2.7
2017-11-07T15:54:16.668Z,2.1
2017-11-07T15:56:17.555Z,2.4
2017-11-07T15:58:17.437Z,2.8
2017-11-07T16:00:17.350Z,2.5
2017-11-07T16:02:17.222Z,2.2
2017-11-07T16:04:17.113Z,2.5
2017-11-07T16:06:16.993Z,2.5
2017-11-07T16:08:16.866Z,2.2
2017-11-07T16:10:17.746Z,1.7
2017-11-07T16:12:16.638Z,2.2
2017-11-07T16:14:17.500Z,2.5
2017-11-07T16:16:17.381Z,2.1
2017-11-07T16:18:18.269Z,1.9
2017-11-07T16:20:17.125Z,2
2017-11-07T16:22:16.996Z,2.2
2017-11-07T16:24:16.880Z,2.3
2017-11-07T16:26:17.767Z,2
2017-11-07T16:28:16.655Z,1.7
2017-11-07T16:30:17.524Z,2.2
2017-11-07T16:32:17.399Z,2.2
2017-11-07T16:34:17.295Z,2
2017-11-07T16:36:17.161Z,1.7
2017-11-07T16:38:17.067Z,2.1
2017-11-07T16:40:17.944Z,2.2
2017-11-07T16:42:16.816Z,1.8
2017-11-07T16:44:16.716Z,1.9
2017-11-07T16:46:17.558Z,2.3
2017-11-07T16:48:17.434Z,1.9
2017-11-07T16:50:17.309Z,2.1
2017-11-07T16:52:17.200Z,2.3
2017-11-07T16:54:17.090Z,2.4
2017-11-07T16:56:17.972Z,2.3
2017-11-07T16:58:16.873Z,1.9
2017-11-07T17:00:16.754Z,2
2017-11-07T17:02:16.626Z,2
2017-11-07T17:04:17.513Z,2.2
2017-11-07T17:06:18.383Z,2
2017-11-07T17:08:17.249Z,2.2
2017-11-07T17:10:17.132Z,2.1
2017-11-07T17:12:17.014Z,2.4
2017-11-07T17:14:16.895Z,2.3
2017-11-07T17:16:17.768Z,2.1
2017-11-07T17:18:17.651Z,2.1
2017-11-07T17:20:17.539Z,2
2017-11-07T17:22:17.424Z,2
2017-11-07T17:24:17.326Z,2.2
2017-11-07T17:26:17.197Z,2.8
2017-11-07T17:28:17.091Z,2.7
2017-11-07T17:30:16.982Z,2.7
2017-11-07T17:32:16.875Z,2.7
2017-11-07T17:34:16.761Z,2.4
2017-11-07T17:36:16.627Z,2.6
2017-11-07T17:38:17.496Z,2.8
2017-11-07T17:40:17.372Z,2.9
2017-11-07T17:42:17.266Z,3
2017-11-07T17:44:17.136Z,3
2017-11-07T17:46:17.994Z,3.2
2017-11-07T17:48:16.887Z,3.3
2017-11-07T17:50:16.732Z,2.4
2017-11-07T17:52:17.578Z,2.7
2017-11-07T17:54:21.400Z,2.9
2017-11-07T17:56:17.258Z,3.3
2017-11-07T17:58:17.101Z,2.6
2017-11-07T18:00:16.950Z,2.9
2017-11-07T18:02:16.801Z,3.4
2017-11-07T18:04:16.653Z,3
2017-11-07T18:06:17.509Z,3.3
2017-11-07T18:08:17.348Z,3.5
2017-11-07T18:12:17.041Z,3.8
2017-11-07T18:14:16.901Z,3.4
2017-11-07T18:16:16.768Z,3.4
2017-11-07T18:18:17.606Z,4.2
2017-11-07T18:20:17.489Z,4.2
2017-11-07T18:22:17.343Z,3.6
2017-11-07T18:26:17.073Z,3.5
2017-11-07T18:28:16.911Z,3.6
2017-11-07T18:30:16.772Z,4.3
2017-11-07T18:32:16.632Z,3.8
2017-11-07T18:34:21.446Z,4.2
2017-11-07T18:36:17.271Z,5.1
2017-11-07T18:38:17.128Z,4.2
2017-11-07T18:40:17.998Z,4.6
2017-11-07T18:42:16.876Z,5.1
2017-11-07T18:44:16.713Z,4.8
2017-11-07T18:46:17.564Z,5.1
2017-11-07T18:48:17.444Z,4.1
2017-11-07T18:50:17.302Z,5.2
2017-11-07T18:52:17.174Z,5.1
2017-11-07T18:54:21.028Z,5.9
2017-11-07T18:56:16.903Z,5.4
2017-11-07T18:58:16.760Z,5.7
2017-11-07T19:00:16.635Z,5.5
2017-11-07T19:02:17.474Z,6.4
2017-11-07T19:04:17.347Z,7.1
2017-11-07T19:06:17.210Z,6.2
2017-11-07T19:08:17.064Z,6.5
2017-11-07T19:10:17.925Z,5.9
2017-11-07T19:12:16.773Z,6.5
2017-11-07T19:14:16.616Z,6.6
2017-11-07T19:16:17.466Z,7.1
2017-11-07T19:18:18.333Z,7.3
2017-11-07T19:20:18.173Z,7.2
2017-11-07T19:22:17.038Z,7.6
2017-11-07T19:24:16.893Z,8.9
2017-11-07T19:26:16.754Z,8.1
2017-11-07T19:28:16.623Z,9.3
2017-11-07T19:30:18.493Z,7.9
2017-11-07T19:32:17.339Z,7.8
2017-11-07T19:34:17.199Z,8.2
2017-11-07T19:36:17.064Z,9
2017-11-07T19:38:16.930Z,9.1
2017-11-07T19:40:17.788Z,9.7
2017-11-07T19:42:16.640Z,9
2017-11-07T19:44:17.505Z,9.4
2017-11-07T19:46:17.357Z,9.9
2017-11-07T19:48:17.222Z,9.3
2017-11-07T19:50:21.070Z,9.1
2017-11-07T19:52:16.941Z,9.7
2017-11-07T19:54:16.809Z,10.8
2017-11-07T19:56:17.678Z,9.9
2017-11-07T19:58:17.546Z,10.9
2017-11-07T20:00:17.415Z,10.3
2017-11-07T20:02:17.285Z,10
2017-11-07T20:04:17.148Z,10.4
2017-11-07T20:06:17.014Z,11.6
2017-11-07T20:08:16.877Z,12.4
2017-11-07T20:10:17.740Z,12.2
2017-11-07T20:12:16.613Z,11.5
2017-11-07T20:14:17.483Z,11.7
2017-11-07T20:16:17.336Z,12.3
2017-11-07T20:18:18.233Z,11.4
2017-11-07T20:20:21.051Z,11.7
2017-11-07T20:22:16.944Z,13.1
2017-11-07T20:24:16.799Z,12.3
2017-11-07T20:26:17.670Z,12.3
2017-11-07T20:28:17.520Z,13.2
2017-11-07T20:30:17.390Z,12.7
2017-11-07T20:32:17.232Z,13.2
2017-11-07T20:34:17.118Z,12.3
2017-11-07T20:36:17.959Z,13.8
2017-11-07T20:38:16.803Z,13
2017-11-07T20:40:17.646Z,14.3
2017-11-07T20:42:17.523Z,12.7
2017-11-07T20:44:17.367Z,13.6
2017-11-07T20:46:18.232Z,13.8
2017-11-07T20:48:17.094Z,13.6
2017-11-07T20:50:16.966Z,14.1
2017-11-07T20:52:16.833Z,14.2
2017-11-07T20:54:16.703Z,13.7
2017-11-07T20:56:17.548Z,15.1
2017-11-07T20:58:17.434Z,15.3
2017-11-07T21:00:17.272Z,14.2
2017-11-07T21:02:17.130Z,14.9
2017-11-07T21:04:17.001Z,15.9
2017-11-07T21:06:16.884Z,15.8
2017-11-07T21:08:20.683Z,16.5
2017-11-07T21:10:17.535Z,17
2017-11-07T21:12:17.377Z,15.9
2017-11-07T21:14:17.263Z,15.7
2017-11-07T21:16:18.103Z,16.6
2017-11-07T21:18:17.961Z,16.4
2017-11-07T21:20:16.848Z,15.4
2017-11-07T21:22:16.682Z,16.7
2017-11-07T21:24:17.546Z,16.5
2017-11-07T21:26:17.394Z,17.7
2017-11-07T21:28:17.240Z,18.3
2017-11-07T21:30:17.099Z,17.8
2017-11-07T21:32:16.953Z,18.9
2017-11-07T21:34:16.821Z,17.9
2017-11-07T21:36:17.691Z,18.1
2017-11-07T21:38:17.536Z,19.6
2017-11-07T21:40:17.413Z,18.9
2017-11-07T21:42:17.271Z,18.8
2017-11-07T21:44:17.134Z,19
2017-11-07T21:46:17.993Z,18.5
2017-11-07T21:48:16.870Z,19.1
2017-11-07T21:50:20.715Z,19.1
2017-11-07T21:52:17.579Z,19.8
2017-11-07T21:54:17.424Z,20.3
2017-11-07T21:56:17.299Z,19.5
2017-11-07T21:58:21.107Z,21.4
2017-11-07T22:00:17.011Z,19.9
2017-11-07T22:02:16.857Z,19.5
2017-11-07T22:04:16.716Z,20.5
2017-11-07T22:06:17.568Z,20.7
2017-11-07T22:08:17.411Z,19.9
2017-11-07T22:10:17.293Z,19.6
2017-11-07T22:12:17.162Z,20.1
2017-11-07T22:14:16.988Z,19.9
2017-11-07T22:16:17.875Z,19.2
2017-11-07T22:18:17.738Z,20.4
2017-11-07T22:20:16.625Z,19.3
2017-11-07T22:22:17.504Z,19.4
2017-11-07T22:24:17.393Z,19.4
2017-11-07T22:26:18.245Z,19.9
2017-11-07T22:28:17.127Z,19.8
2017-11-07T22:30:17.008Z,17.8
2017-11-07T22:32:16.875Z,18.5
2017-11-07T22:34:16.767Z,20.7
2017-11-07T22:36:17.613Z,20.3
2017-11-07T22:38:17.463Z,19
2017-11-07T22:40:17.356Z,18.3
2017-11-07T22:42:17.223Z,21.3
2017-11-07T22:44:17.065Z,19.5
2017-11-07T22:46:17.958Z,19
2017-11-07T22:48:16.844Z,18.8
2017-11-07T22:50:17.665Z,19.7
2017-11-07T22:52:17.525Z,18.7
2017-11-07T22:54:17.407Z,19.1
2017-11-07T22:56:18.263Z,18.3
2017-11-07T22:58:17.125Z,18.9
2017-11-07T23:00:20.999Z,19.6
2017-11-07T23:02:16.862Z,19.3
2017-11-07T23:04:16.773Z,19.7
2017-11-07T23:06:17.590Z,19.8
2017-11-07T23:08:17.479Z,19.2
2017-11-07T23:10:17.340Z,20.1
2017-11-07T23:12:17.218Z,19.3
2017-11-07T23:14:17.057Z,18.9
2017-11-07T23:16:17.937Z,20.1
2017-11-07T23:18:17.800Z,19.8
2017-11-07T23:20:16.690Z,20
2017-11-07T23:22:17.547Z,19.9
2017-11-07T23:24:17.402Z,19.6
2017-11-07T23:26:17.279Z,21.2
2017-11-07T23:28:17.152Z,20.7
2017-11-07T23:30:17.021Z,19.8
2017-11-07T23:32:16.907Z,20.3
2017-11-07T23:34:16.767Z,21.1
2017-11-07T23:36:17.662Z,20.9
2017-11-07T23:38:17.536Z,19.9
2017-11-07T23:40:17.394Z,20.8
2017-11-07T23:42:17.243Z,20.8
2017-11-07T23:44:17.117Z,21.6
2017-11-07T23:46:17.989Z,20.7
2017-11-07T23:48:16.867Z,20.8
2017-11-07T23:50:17.737Z,21.8
2017-11-07T23:52:16.609Z,21.2
2017-11-07T23:54:17.481Z,21.9
2017-11-07T23:56:17.344Z,21.5
2017-11-07T23:58:17.222Z,21.1
